Time;durP1;ratioP1;P1;durP2;ratioP2;P2;SDS_P1;SDS_P2;PMS_P1;PMS_P2;Temp;Humidity;BMP_temperature;BMP_pressure;BME280_temperature;BME280_humidity;BME280_pressure;Samples;Min_cycle;Max_cycle;Signal;HPM_P1;HPM_P2
2023/07/12 00:01:19;;;;;;;6.50;3.90;;;;;;;17.68;63.10;100423.05;105412;1260;63735;-61
2023/07/12 00:03:48;;;;;;;6.80;3.30;;;;;;;17.75;62.76;100421.73;105398;1261;60558;-60
2023/07/12 00:06:18;;;;;;;9.10;4.00;;;;;;;17.77;62.61;100416.77;105285;1262;60436;-61
2023/07/12 00:08:46;;;;;;;7.50;4.10;;;;;;;17.77;62.50;100414.61;105368;1262;64945;-61
2023/07/12 00:11:23;;;;;;;6.70;3.70;;;;;;;17.74;62.39;100417.39;105453;1260;61560;-63
2023/07/12 00:13:53;;;;;;;6.80;3.50;;;;;;;17.71;62.40;100417.65;105261;1260;62437;-62
2023/07/12 00:16:22;;;;;;;5.80;3.50;;;;;;;17.69;62.39;100417.09;105404;1263;60478;-62
2023/07/12 00:18:51;;;;;;;6.90;3.70;;;;;;;17.71;62.37;100417.23;105341;1257;60655;-62
2023/07/12 00:21:24;;;;;;;8.20;3.40;;;;;;;17.73;62.28;100419.89;105537;1258;63668;-62
2023/07/12 00:23:53;;;;;;;7.60;3.50;;;;;;;17.75;62.29;100420.88;105553;1261;60355;-63
2023/07/12 00:26:21;;;;;;;6.00;3.60;;;;;;;17.76;62.13;100418.85;105569;1257;71905;-63
2023/07/12 00:28:49;;;;;;;5.90;3.30;;;;;;;17.75;62.00;100417.62;107729;1260;60503;-63
2023/07/12 00:31:19;;;;;;;5.80;3.50;;;;;;;17.75;62.03;100418.58;105298;1259;60523;-62
2023/07/12 00:33:46;;;;;;;8.60;3.40;;;;;;;17.72;62.03;100420.32;105239;1257;64914;-62
2023/07/12 00:36:32;;;;;;;6.20;3.70;;;;;;;17.72;62.08;100420.81;105353;1263;61356;-62
2023/07/12 00:39:01;;;;;;;7.00;3.40;;;;;;;17.77;62.00;100425.76;105405;1257;63709;-61
2023/07/12 00:41:48;;;;;;;7.10;3.60;;;;;;;17.81;61.89;100429.26;105480;1260;60543;-63
2023/07/12 00:44:24;;;;;;;6.30;3.30;;;;;;;17.81;61.81;100429.58;105434;1257;60561;-63
2023/07/12 00:46:53;;;;;;;6.50;3.60;;;;;;;17.74;61.78;100433.79;105747;1260;65439;-62
2023/07/12 00:49:21;;;;;;;8.20;4.10;;;;;;;17.63;62.03;100435.43;105351;1267;61942;-62
2023/07/12 00:51:52;;;;;;;5.80;3.40;;;;;;;17.60;62.12;100438.48;105332;1261;63737;-62
2023/07/12 00:54:23;;;;;;;6.60;3.70;;;;;;;17.59;62.02;100437.32;105404;1257;60574;-63
2023/07/12 00:56:51;;;;;;;8.40;3.40;;;;;;;17.61;61.73;100433.36;105372;1255;61838;-61
2023/07/12 00:59:24;;;;;;;7.30;3.60;;;;;;;17.64;61.58;100427.91;105338;1263;64871;-62
2023/07/12 01:01:52;;;;;;;7.40;3.70;;;;;;;17.66;61.34;100428.08;105166;1260;61396;-62
2023/07/12 01:04:23;;;;;;;6.60;3.40;;;;;;;17.65;61.41;100425.88;105194;1263;62426;-63
2023/07/12 01:06:51;;;;;;;6.90;4.00;;;;;;;17.62;61.44;100431.67;105176;1258;60527;-63
2023/07/12 01:09:19;;;;;;;8.90;3.60;;;;;;;17.56;61.56;100432.66;105219;1258;60380;-64
2023/07/12 01:11:46;;;;;;;8.90;3.90;;;;;;;17.50;61.74;100435.66;105084;1263;64896;-64
2023/07/12 01:14:16;;;;;;;6.90;3.90;;;;;;;17.43;61.86;100432.55;105185;1262;69937;-62
2023/07/12 01:16:48;;;;;;;8.00;3.80;;;;;;;17.40;62.10;100431.04;105200;1257;63776;-63
2023/07/12 01:19:16;;;;;;;6.60;3.50;;;;;;;17.41;62.10;100433.83;105329;1257;60373;-62
2023/07/12 01:21:49;;;;;;;5.40;3.10;;;;;;;17.41;62.24;100433.27;105316;1261;61708;-62
2023/07/12 01:24:19;;;;;;;6.40;3.40;;;;;;;17.39;62.20;100430.78;105307;1260;64930;-61
2023/07/12 01:26:49;;;;;;;7.20;3.70;;;;;;;17.36;62.33;100429.02;104825;1273;60608;-61
2023/07/12 01:29:26;;;;;;;7.10;3.60;;;;;;;17.27;62.49;100427.45;104580;1266;63752;-61
2023/07/12 01:31:54;;;;;;;7.70;4.20;;;;;;;17.15;62.52;100423.11;105004;1260;60603;-62
2023/07/12 01:34:23;;;;;;;6.70;3.90;;;;;;;17.03;62.74;100416.20;105312;1261;60505;-62
2023/07/12 01:36:51;;;;;;;8.00;3.90;;;;;;;16.99;62.92;100414.86;105429;1261;64963;-59
2023/07/12 01:39:18;;;;;;;7.40;3.50;;;;;;;16.97;63.01;100416.91;105309;1257;61537;-60
2023/07/12 01:41:47;;;;;;;6.90;4.00;;;;;;;16.94;63.03;100417.94;105341;1260;63694;-66
2023/07/12 01:44:14;;;;;;;9.10;3.60;;;;;;;16.91;63.28;100413.82;105437;1258;60571;-60
2023/07/12 01:46:42;;;;;;;8.30;4.20;;;;;;;16.87;63.55;100413.11;105346;1257;60569;-62
2023/07/12 01:49:09;;;;;;;6.90;3.70;;;;;;;16.82;63.68;100412.17;105363;1258;63694;-61
2023/07/12 01:51:37;;;;;;;6.10;3.60;;;;;;;16.79;64.05;100407.95;105363;1257;60540;-62
2023/07/12 01:54:05;;;;;;;5.20;3.50;;;;;;;16.81;63.98;100412.01;105383;1262;62517;-62
2023/07/12 01:56:33;;;;;;;6.40;3.80;;;;;;;16.85;64.07;100413.50;104913;1265;61107;-61
2023/07/12 01:59:01;;;;;;;7.50;3.80;;;;;;;16.88;63.99;100416.77;105153;1263;61003;-63
2023/07/12 02:01:28;;;;;;;7.60;3.90;;;;;;;16.85;64.12;100420.59;105245;1258;64894;-60
2023/07/12 02:03:56;;;;;;;6.60;3.90;;;;;;;16.80;64.05;100418.32;105393;1258;61591;-61
2023/07/12 02:06:23;;;;;;;8.20;4.10;;;;;;;16.73;64.11;100418.70;105163;1265;64311;-61
2023/07/12 02:08:51;;;;;;;6.90;4.00;;;;;;;16.64;64.25;100421.92;105225;1263;60568;-61
2023/07/12 02:11:19;;;;;;;8.00;3.80;;;;;;;16.59;64.40;100422.64;105344;1257;60645;-62
2023/07/12 02:13:46;;;;;;;8.30;4.00;;;;;;;16.58;64.36;100423.64;105318;1264;64969;-61
2023/07/12 02:16:14;;;;;;;10.30;4.60;;;;;;;16.56;64.45;100421.20;105251;1263;61393;-60
2023/07/12 02:18:41;;;;;;;6.50;4.40;;;;;;;16.53;64.70;100421.64;105261;1260;64706;-62
2023/07/12 02:21:09;;;;;;;6.20;3.90;;;;;;;16.49;64.64;100421.48;105346;1257;60759;-62
2023/07/12 02:23:37;;;;;;;7.50;4.40;;;;;;;16.44;64.50;100421.66;105354;1261;60392;-62
2023/07/12 02:26:05;;;;;;;6.20;4.20;;;;;;;16.39;64.67;100423.80;105507;1260;65340;-60
2023/07/12 02:28:33;;;;;;;6.80;4.00;;;;;;;16.37;64.69;100421.36;105157;1261;60499;-61
2023/07/12 02:31:21;;;;;;;7.30;4.20;;;;;;;16.37;64.55;100417.84;105324;1258;62552;-61
2023/07/12 02:33:49;;;;;;;11.30;4.30;;;;;;;16.40;64.66;100418.36;105314;1257;60476;-61
2023/07/12 02:36:17;;;;;;;7.60;4.00;;;;;;;16.44;64.72;100419.77;105589;1257;60453;-62
2023/07/12 02:38:46;;;;;;;7.50;4.80;;;;;;;16.48;64.92;100421.63;105279;1257;65041;-62
2023/07/12 02:41:16;;;;;;;8.20;4.70;;;;;;;16.52;64.83;100426.14;105391;1257;61299;-62
2023/07/12 02:43:44;;;;;;;9.70;4.60;;;;;;;16.57;64.79;100433.09;105380;1260;63774;-62
2023/07/12 02:46:12;;;;;;;11.40;4.30;;;;;;;16.65;64.60;100434.02;105309;1260;60552;-62
2023/07/12 02:48:40;;;;;;;6.30;4.10;;;;;;;16.74;64.18;100436.31;105453;1257;60466;-63
2023/07/12 02:51:07;;;;;;;8.10;4.30;;;;;;;16.77;63.79;100439.46;105299;1257;63628;-63
2023/07/12 02:53:35;;;;;;;9.80;4.40;;;;;;;16.72;63.73;100442.14;105297;1260;61305;-62
2023/07/12 02:56:07;;;;;;;9.60;4.80;;;;;;;16.66;64.04;100440.98;105180;1258;63949;-67
2023/07/12 02:58:35;;;;;;;7.60;4.60;;;;;;;16.65;64.16;100438.67;105424;1256;60548;-61
2023/07/12 03:01:02;;;;;;;6.70;3.90;;;;;;;16.65;64.16;100439.04;105349;1260;61501;-62
2023/07/12 03:03:30;;;;;;;7.70;4.00;;;;;;;16.67;64.16;100445.31;105437;1257;65003;-62
2023/07/12 03:06:03;;;;;;;6.50;4.00;;;;;;;16.73;64.22;100449.19;105309;1260;61392;-62
2023/07/12 03:08:31;;;;;;;7.30;4.40;;;;;;;16.80;64.29;100450.47;105556;1257;65992;-63
2023/07/12 03:10:58;;;;;;;6.40;3.60;;;;;;;16.88;64.35;100457.33;105192;1260;60677;-62
2023/07/12 03:13:26;;;;;;;10.50;4.40;;;;;;;16.96;64.36;100457.88;105370;1257;60508;-62
2023/07/12 03:15:54;;;;;;;7.00;4.20;;;;;;;17.03;64.21;100459.42;105235;1260;65684;-63
2023/07/12 03:18:21;;;;;;;8.40;4.50;;;;;;;17.08;64.19;100460.50;105363;1260;61358;-61
2023/07/12 03:20:49;;;;;;;7.60;3.90;;;;;;;17.12;63.66;100459.24;105375;1263;63678;-61
2023/07/12 03:23:17;;;;;;;5.50;3.70;;;;;;;17.15;63.67;100455.86;105461;1257;60559;-62
2023/07/12 03:25:45;;;;;;;9.40;4.00;;;;;;;17.23;63.50;100458.41;105213;1257;60917;-62
2023/07/12 03:28:13;;;;;;;7.20;4.70;;;;;;;17.28;63.42;100462.66;105336;1260;64948;-62
2023/07/12 03:30:40;;;;;;;7.70;4.10;;;;;;;17.36;63.46;100465.88;105264;1257;61463;-61
2023/07/12 03:33:08;;;;;;;7.00;4.00;;;;;;;17.45;63.44;100469.23;105311;1260;63743;-61
2023/07/12 03:35:36;;;;;;;5.70;3.70;;;;;;;17.49;63.21;100474.77;105339;1260;60434;-62
2023/07/12 03:38:03;;;;;;;6.60;4.10;;;;;;;17.59;62.62;100480.55;105206;1257;60476;-60
2023/07/12 03:40:31;;;;;;;9.00;4.60;;;;;;;17.72;62.09;100482.42;105388;1260;64899;-60
2023/07/12 03:42:58;;;;;;;6.50;4.00;;;;;;;17.82;61.54;100489.27;105585;1258;61838;-59
2023/07/12 03:45:26;;;;;;;7.40;4.00;;;;;;;17.87;61.10;100496.74;105568;1257;63747;-62
2023/07/12 03:47:53;;;;;;;7.30;4.10;;;;;;;17.90;61.11;100502.91;105319;1258;61025;-62
2023/07/12 03:50:21;;;;;;;6.80;3.50;;;;;;;17.92;61.40;100503.00;105290;1261;60459;-61
2023/07/12 03:52:49;;;;;;;7.30;3.90;;;;;;;18.00;61.62;100509.75;105490;1257;65443;-74
2023/07/12 03:55:16;;;;;;;6.30;3.60;;;;;;;18.12;61.46;100514.69;105495;1264;61340;-71
2023/07/12 03:57:43;;;;;;;6.00;3.90;;;;;;;18.20;61.05;100516.61;105353;1257;63709;-62
2023/07/12 04:00:15;;;;;;;7.70;4.00;;;;;;;18.24;60.88;100521.33;105238;1256;61713;-60
2023/07/12 04:02:46;;;;;;;6.60;3.90;;;;;;;18.26;60.65;100518.14;105363;1261;60373;-61
2023/07/12 04:05:42;;;;;;;8.00;4.10;;;;;;;18.27;60.61;100518.56;105302;1260;65473;-62
2023/07/12 04:08:13;;;;;;;6.20;3.10;;;;;;;18.34;60.80;100518.84;105232;1257;60552;-62
2023/07/12 04:10:40;;;;;;;9.80;3.40;;;;;;;18.43;60.56;100518.55;105396;1256;63746;-61
2023/07/12 04:13:08;;;;;;;7.10;3.30;;;;;;;18.49;59.99;100521.20;105142;1260;60455;-60
2023/07/12 04:15:36;;;;;;;6.20;3.40;;;;;;;18.52;59.66;100524.62;105498;1257;60473;-61
2023/07/12 04:18:03;;;;;;;5.40;3.00;;;;;;;18.54;59.71;100530.04;105344;1260;64953;-60
2023/07/12 04:20:31;;;;;;;5.70;3.20;;;;;;;18.57;59.84;100533.26;105339;1261;61376;-60
2023/07/12 04:22:58;;;;;;;10.00;3.40;;;;;;;18.64;59.63;100534.31;105209;1257;62464;-60
2023/07/12 04:25:26;;;;;;;7.10;3.70;;;;;;;18.71;59.80;100533.45;105291;1257;60524;-60
2023/07/12 04:27:55;;;;;;;6.70;3.90;;;;;;;18.81;59.63;100533.48;105242;1257;60534;-62
2023/07/12 04:30:24;;;;;;;7.30;3.70;;;;;;;18.87;59.00;100535.65;105341;1259;64937;-61
2023/07/12 04:32:52;;;;;;;6.10;3.60;;;;;;;18.89;58.42;100532.37;105317;1260;60451;-61
2023/07/12 04:35:20;;;;;;;5.00;3.20;;;;;;;18.91;58.45;100535.59;105309;1257;63752;-61
2023/07/12 04:37:49;;;;;;;6.00;3.40;;;;;;;18.92;58.25;100533.43;105174;1260;60508;-61
2023/07/12 04:40:17;;;;;;;6.40;3.50;;;;;;;18.94;58.09;100536.25;105296;1257;60654;-62
2023/07/12 04:42:45;;;;;;;5.50;3.40;;;;;;;18.96;57.81;100541.73;105354;1257;65753;-62
2023/07/12 04:45:13;;;;;;;5.20;2.70;;;;;;;19.02;57.24;100551.08;105097;1260;61445;-62
2023/07/12 04:47:41;;;;;;;6.00;3.20;;;;;;;19.09;57.12;100557.84;105303;1256;63744;-60
2023/07/12 04:50:09;;;;;;;8.20;3.20;;;;;;;19.11;57.02;100559.20;105312;1257;60566;-61
2023/07/12 04:52:37;;;;;;;7.30;3.40;;;;;;;19.15;56.81;100561.73;105265;1256;60450;-62
2023/07/12 04:55:18;;;;;;;7.20;3.70;;;;;;;19.19;55.93;100559.96;105324;1260;64914;-61
2023/07/12 04:57:46;;;;;;;7.90;3.80;;;;;;;19.23;55.64;100563.84;105113;1257;61308;-60
2023/07/12 05:00:14;;;;;;;7.30;3.50;;;;;;;19.24;55.49;100564.23;105195;1263;63766;-60
2023/07/12 05:02:42;;;;;;;6.30;3.00;;;;;;;19.22;54.87;100565.84;105336;1257;61674;-60
2023/07/12 05:05:11;;;;;;;7.60;3.00;;;;;;;19.20;54.89;100569.45;105273;1258;60581;-62
2023/07/12 05:07:40;;;;;;;5.60;3.10;;;;;;;19.20;54.79;100571.25;105158;1257;64913;-62
2023/07/12 05:10:09;;;;;;;5.30;2.30;;;;;;;19.24;54.90;100567.44;105224;1260;61584;-62
2023/07/12 05:12:36;;;;;;;4.60;2.40;;;;;;;19.30;54.77;100563.30;105347;1257;63742;-62
2023/07/12 05:15:05;;;;;;;5.40;2.70;;;;;;;19.34;55.01;100561.08;105315;1257;61070;-62
2023/07/12 05:17:34;;;;;;;6.70;2.30;;;;;;;19.39;54.81;100559.80;104660;1257;61390;-63
2023/07/12 05:20:04;;;;;;;4.80;2.00;;;;;;;19.43;54.38;100561.29;104715;1269;65469;-60
2023/07/12 05:22:31;;;;;;;5.40;2.30;;;;;;;19.46;54.43;100558.96;104813;1257;61368;-60
2023/07/12 05:24:59;;;;;;;5.10;2.30;;;;;;;19.49;54.22;100559.51;105325;1258;63764;-61
2023/07/12 05:27:27;;;;;;;6.00;2.10;;;;;;;19.51;53.47;100560.60;105315;1257;60482;-60
2023/07/12 05:29:58;;;;;;;4.60;2.30;;;;;;;19.51;52.89;100558.06;104562;1258;60572;-55
2023/07/12 05:32:28;;;;;;;5.30;2.50;;;;;;;19.53;53.13;100556.58;104269;1271;65454;-59
2023/07/12 05:34:57;;;;;;;5.30;2.00;;;;;;;19.57;52.92;100551.76;105315;1257;60557;-58
2023/07/12 05:37:25;;;;;;;4.40;2.00;;;;;;;19.58;52.03;100546.58;104863;1274;62472;-59
2023/07/12 05:40:41;;;;;;;4.50;2.10;;;;;;;19.61;52.11;100543.51;104742;1264;60469;-59
2023/07/12 05:43:13;;;;;;;5.60;2.40;;;;;;;19.65;51.85;100539.35;104573;1272;61265;-57
2023/07/12 05:45:40;;;;;;;5.10;2.30;;;;;;;19.69;51.97;100540.92;104986;1259;65051;-56
2023/07/12 05:48:08;;;;;;;7.20;2.10;;;;;;;19.71;51.99;100533.86;104636;1260;61325;-57
2023/07/12 05:51:08;;;;;;;4.30;1.80;;;;;;;19.74;51.62;100532.69;104865;1266;62622;-57
2023/07/12 05:53:45;;;;;;;5.30;2.20;;;;;;;19.79;51.13;100533.46;104937;1263;60519;-59
2023/07/12 05:56:45;;;;;;;5.50;1.90;;;;;;;19.81;50.06;100533.82;104388;1260;60560;-55
2023/07/12 05:59:24;;;;;;;7.80;2.40;;;;;;;19.82;50.10;100532.77;104634;1262;64955;-57
2023/07/12 06:01:52;;;;;;;10.30;2.30;;;;;;;19.86;48.86;100534.67;104519;1260;62530;-57
2023/07/12 06:04:20;;;;;;;3.90;1.70;;;;;;;19.89;48.31;100529.14;104551;1268;63688;-55
2023/07/12 06:06:50;;;;;;;3.60;1.50;;;;;;;19.92;47.88;100526.89;104920;1261;61693;-57
2023/07/12 06:09:18;;;;;;;3.90;1.70;;;;;;;19.95;47.83;100526.45;105024;1260;60684;-57
2023/07/12 06:11:45;;;;;;;3.90;1.80;;;;;;;20.01;47.68;100531.64;105200;1257;65024;-57
2023/07/12 06:14:13;;;;;;;4.60;1.80;;;;;;;20.06;46.91;100537.30;105379;1262;61526;-56
2023/07/12 06:16:42;;;;;;;5.00;1.90;;;;;;;20.07;45.96;100535.17;105344;1259;63713;-56
2023/07/12 06:19:10;;;;;;;5.90;2.10;;;;;;;20.09;45.53;100531.77;105296;1258;60617;-55
2023/07/12 06:21:38;;;;;;;6.50;1.60;;;;;;;20.09;43.91;100530.17;105300;1260;60446;-56
2023/07/12 06:24:06;;;;;;;3.40;1.50;;;;;;;20.10;44.71;100531.66;105306;1258;65340;-56
2023/07/12 06:26:34;;;;;;;5.50;1.70;;;;;;;20.13;44.53;100529.55;105620;1257;61397;-61
2023/07/12 06:29:01;;;;;;;5.20;1.90;;;;;;;20.13;43.44;100522.73;105308;1260;62457;-56
2023/07/12 06:31:29;;;;;;;4.10;1.30;;;;;;;20.13;43.43;100521.66;105288;1260;60590;-57
2023/07/12 06:33:59;;;;;;;5.20;1.50;;;;;;;20.15;43.92;100527.33;105314;1258;60456;-56
2023/07/12 06:36:27;;;;;;;4.90;1.50;;;;;;;20.18;43.33;100528.20;105364;1257;63613;-56
2023/07/12 06:38:54;;;;;;;3.80;1.40;;;;;;;20.23;43.28;100527.95;105298;1260;60393;-57
2023/07/12 06:41:22;;;;;;;5.40;1.40;;;;;;;20.29;43.33;100532.69;105342;1257;63703;-56
2023/07/12 06:43:49;;;;;;;4.90;1.50;;;;;;;20.35;43.43;100533.30;105773;1257;60420;-56
2023/07/12 06:46:17;;;;;;;6.20;1.60;;;;;;;20.43;43.01;100528.16;105567;1257;60565;-57
2023/07/12 06:48:45;;;;;;;5.10;1.50;;;;;;;20.49;41.38;100520.88;105264;1257;72954;-57
2023/07/12 06:51:12;;;;;;;4.00;1.20;;;;;;;20.52;41.86;100517.38;105357;1258;61304;-58
2023/07/12 06:53:40;;;;;;;6.50;1.60;;;;;;;20.56;41.61;100516.23;105300;1260;72757;-57
2023/07/12 06:56:07;;;;;;;4.80;1.50;;;;;;;20.59;41.33;100510.85;105273;1258;60574;-57
2023/07/12 06:58:35;;;;;;;3.30;1.20;;;;;;;20.63;41.68;100505.45;105298;1257;60555;-56
2023/07/12 07:01:07;;;;;;;4.80;1.60;;;;;;;20.67;41.19;100505.14;105344;1257;65045;-55
2023/07/12 07:03:35;;;;;;;3.90;1.10;;;;;;;20.70;40.84;100509.55;105407;1258;61570;-56
2023/07/12 07:06:03;;;;;;;3.30;1.20;;;;;;;20.73;40.54;100507.96;105397;1260;64456;-55
2023/07/12 07:08:31;;;;;;;3.60;1.30;;;;;;;20.76;39.99;100515.59;105241;1257;60542;-56
2023/07/12 07:11:00;;;;;;;3.70;1.40;;;;;;;20.79;40.26;100516.17;105419;1256;60588;-58
2023/07/12 07:13:28;;;;;;;3.00;1.10;;;;;;;20.81;40.11;100510.55;105253;1260;65140;-58
2023/07/12 07:15:56;;;;;;;3.00;1.30;;;;;;;20.83;40.17;100508.85;105286;1257;60628;-59
2023/07/12 07:18:23;;;;;;;3.70;1.30;;;;;;;20.87;40.15;100508.69;105287;1256;64314;-57
2023/07/12 07:20:52;;;;;;;6.00;1.20;;;;;;;20.93;39.70;100503.20;105345;1257;60473;-56
2023/07/12 07:23:20;;;;;;;5.60;1.30;;;;;;;20.99;39.41;100505.66;105341;1260;60613;-56
2023/07/12 07:25:47;;;;;;;3.40;1.40;;;;;;;21.06;39.63;100509.08;105204;1258;64909;-56
2023/07/12 07:41:49;;;;;;;2.90;0.90;;;;;;;21.33;38.00;100505.61;103296;1285;603717;-58
2023/07/12 07:44:20;;;;;;;2.80;1.00;;;;;;;21.86;36.41;100494.99;103996;1280;116365;-56
2023/07/12 07:46:47;;;;;;;3.60;1.30;;;;;;;21.90;35.60;100492.50;104575;1271;59356;-56
2023/07/12 07:49:15;;;;;;;3.20;1.10;;;;;;;21.92;35.98;100495.77;104611;1270;62021;-57
2023/07/12 07:51:43;;;;;;;3.30;1.00;;;;;;;21.93;35.72;100497.14;104562;1266;61320;-57
2023/07/12 07:54:10;;;;;;;2.80;0.90;;;;;;;21.92;35.44;100498.12;104624;1271;63809;-58
2023/07/12 07:56:38;;;;;;;3.60;1.20;;;;;;;21.94;35.56;100496.27;104559;1269;59320;-55
2023/07/12 07:59:06;;;;;;;3.70;1.20;;;;;;;21.99;35.43;100499.59;104776;1263;62013;-56
2023/07/12 08:01:33;;;;;;;3.50;1.10;;;;;;;22.00;35.04;100501.73;104978;1263;63260;-58
2023/07/12 08:04:02;;;;;;;3.80;1.00;;;;;;;22.01;34.91;100501.74;104967;1266;61418;-57
2023/07/12 08:06:30;;;;;;;3.30;1.10;;;;;;;22.05;35.59;100498.27;105081;1265;63856;-56
2023/07/12 08:08:57;;;;;;;3.30;1.00;;;;;;;22.12;35.44;100494.48;104956;1267;59653;-58
2023/07/12 08:11:25;;;;;;;5.70;1.00;;;;;;;22.20;35.17;100490.12;104761;1267;59661;-57
2023/07/12 08:13:52;;;;;;;4.00;1.20;;;;;;;22.24;34.81;100486.91;104947;1267;64125;-59
2023/07/12 08:16:20;;;;;;;3.50;1.20;;;;;;;22.28;34.79;100487.36;105278;1263;61925;-57
2023/07/12 08:18:49;;;;;;;3.60;1.10;;;;;;;22.33;34.44;100489.31;105319;1254;63754;-57
2023/07/12 08:21:16;;;;;;;4.30;1.00;;;;;;;22.38;34.59;100491.16;105610;1260;59838;-56
2023/07/12 08:23:44;;;;;;;4.10;1.30;;;;;;;22.40;34.20;100492.90;105497;1254;59721;-57
2023/07/12 08:26:11;;;;;;;3.10;0.90;;;;;;;22.43;34.67;100494.36;105324;1259;64155;-57
2023/07/12 08:28:39;;;;;;;3.50;1.40;;;;;;;22.49;34.97;100492.83;105496;1254;61538;-56
2023/07/12 08:31:06;;;;;;;5.00;1.10;;;;;;;22.55;34.83;100492.16;105408;1259;63654;-57
2023/07/12 08:33:34;;;;;;;3.60;1.50;;;;;;;22.61;35.42;100492.14;105301;1260;59649;-56
2023/07/12 08:36:02;;;;;;;3.50;1.40;;;;;;;22.81;35.57;100491.39;105215;1253;59279;-56
2023/07/12 08:38:31;;;;;;;3.80;1.40;;;;;;;22.79;35.17;100487.77;106193;1262;64612;-57
2023/07/12 08:41:00;;;;;;;3.60;1.40;;;;;;;22.77;35.10;100488.90;105461;1255;70286;-56
2023/07/12 08:43:31;;;;;;;3.60;1.10;;;;;;;22.79;35.39;100488.08;105232;1254;63841;-58
2023/07/12 08:46:10;;;;;;;3.20;1.30;;;;;;;22.84;35.39;100483.98;105354;1257;59705;-57
2023/07/12 08:48:38;;;;;;;4.10;1.30;;;;;;;22.87;35.40;100478.83;105453;1255;59848;-60
2023/07/12 08:51:13;;;;;;;3.40;1.40;;;;;;;22.90;35.78;100475.70;105260;1259;64138;-57
2023/07/12 08:53:41;;;;;;;4.10;1.70;;;;;;;22.96;35.77;100474.18;105369;1260;60132;-58
2023/07/12 08:56:13;;;;;;;3.80;1.30;;;;;;;23.00;35.11;100477.00;105485;1259;63933;-59
2023/07/12 08:58:47;;;;;;;4.70;1.70;;;;;;;23.08;35.18;100485.73;105558;1260;59752;-61
2023/07/12 09:01:34;;;;;;;4.80;1.30;;;;;;;23.17;34.75;100491.04;105370;1258;60070;-59
2023/07/12 09:04:21;;;;;;;4.10;1.50;;;;;;;23.24;34.54;100487.05;105821;1258;64142;-59
2023/07/12 09:06:50;;;;;;;3.60;1.30;;;;;;;23.34;34.36;100475.17;105437;1253;61359;-58
2023/07/12 09:09:18;;;;;;;6.50;1.70;;;;;;;23.44;34.13;100470.02;105493;1260;62478;-58
2023/07/12 09:11:46;;;;;;;3.30;1.30;;;;;;;23.52;34.39;100473.23;105426;1254;59744;-57
2023/07/12 09:14:16;;;;;;;4.10;1.30;;;;;;;23.57;35.05;100475.64;105408;1260;59527;-56
2023/07/12 09:16:54;;;;;;;3.40;1.30;;;;;;;23.58;34.68;100473.52;105422;1258;62843;-58
2023/07/12 09:19:25;;;;;;;3.10;1.30;;;;;;;23.55;34.30;100466.42;105473;1259;60165;-59
2023/07/12 09:22:01;;;;;;;4.10;1.50;;;;;;;23.62;35.05;100465.30;105324;1256;70734;-58
2023/07/12 09:24:32;;;;;;;5.00;1.40;;;;;;;23.76;34.65;100471.70;105472;1259;59644;-58
2023/07/12 09:27:04;;;;;;;4.00;1.50;;;;;;;23.86;34.20;100469.86;105461;1258;59666;-58
2023/07/12 09:29:35;;;;;;;7.40;1.80;;;;;;;23.94;34.63;100468.09;105486;1255;64122;-57
2023/07/12 09:32:26;;;;;;;3.90;1.80;;;;;;;24.00;34.02;100467.91;105426;1259;60271;-58
2023/07/12 09:34:54;;;;;;;4.50;1.60;;;;;;;24.02;34.13;100468.35;105386;1258;63758;-59
2023/07/12 09:37:22;;;;;;;5.50;2.00;;;;;;;24.03;34.54;100467.86;105478;1257;59676;-59
2023/07/12 09:39:55;;;;;;;5.90;1.80;;;;;;;24.04;33.70;100470.42;105464;1254;59671;-60
2023/07/12 09:42:23;;;;;;;3.50;1.50;;;;;;;24.03;33.51;100471.65;105562;1259;63074;-56
2023/07/12 09:44:50;;;;;;;3.90;1.50;;;;;;;24.03;33.70;100469.48;105335;1256;61552;-56
2023/07/12 09:47:45;;;;;;;4.00;1.70;;;;;;;24.07;34.20;100464.88;105288;1260;63752;-58
2023/07/12 09:50:20;;;;;;;3.90;1.80;;;;;;;24.13;33.62;100463.30;105379;1254;59737;-57
2023/07/12 09:52:53;;;;;;;3.80;1.50;;;;;;;24.16;33.76;100462.58;105370;1254;59555;-58
2023/07/12 09:55:39;;;;;;;3.90;1.40;;;;;;;24.18;33.90;100458.81;105320;1260;64634;-57
2023/07/12 09:58:12;;;;;;;5.10;1.70;;;;;;;24.14;33.08;100463.13;105270;1256;61363;-57
2023/07/12 10:01:11;;;;;;;3.60;1.50;;;;;;;24.08;33.54;100465.25;105442;1260;63737;-59
2023/07/12 10:03:42;;;;;;;5.50;1.90;;;;;;;24.04;34.12;100467.23;105437;1254;59746;-58
2023/07/12 10:06:13;;;;;;;3.30;1.40;;;;;;;24.05;33.96;100465.42;105391;1259;59615;-56
2023/07/12 10:08:48;;;;;;;7.10;1.90;;;;;;;24.07;33.32;100461.45;105435;1260;64112;-55
2023/07/12 10:11:36;;;;;;;3.70;1.60;;;;;;;24.04;33.20;100455.30;105376;1261;60100;-56
2023/07/12 10:14:06;;;;;;;4.80;2.00;;;;;;;24.01;33.27;100457.45;105452;1259;63726;-57
2023/07/12 10:16:39;;;;;;;3.80;1.70;;;;;;;24.07;33.44;100455.48;105407;1256;59676;-56
2023/07/12 10:19:20;;;;;;;4.80;1.70;;;;;;;24.16;33.40;100454.23;105463;1256;59762;-58
2023/07/12 10:21:52;;;;;;;4.30;1.70;;;;;;;24.22;33.06;100460.42;105412;1259;64126;-57
2023/07/12 10:24:19;;;;;;;5.60;2.10;;;;;;;24.30;33.14;100457.58;105486;1256;61356;-56
2023/07/12 10:26:47;;;;;;;4.20;1.40;;;;;;;24.37;33.89;100451.02;105120;1260;63667;-57
2023/07/12 10:29:24;;;;;;;5.30;1.80;;;;;;;24.44;33.99;100447.27;105324;1260;60003;-58
2023/07/12 10:31:57;;;;;;;4.90;1.90;;;;;;;24.43;33.03;100447.02;105339;1258;59768;-58
2023/07/12 10:34:30;;;;;;;5.70;1.70;;;;;;;24.37;32.58;100448.58;105497;1254;64142;-57
2023/07/12 10:37:04;;;;;;;4.80;1.80;;;;;;;24.30;32.91;100450.17;105317;1259;70322;-55
2023/07/12 10:39:34;;;;;;;4.40;1.80;;;;;;;24.23;32.58;100448.09;105074;1267;62448;-56
2023/07/12 10:42:07;;;;;;;5.30;1.70;;;;;;;24.18;32.67;100444.35;104846;1259;59865;-52
2023/07/12 10:44:42;;;;;;;5.80;1.70;;;;;;;24.14;32.41;100445.38;105130;1264;59945;-56
2023/07/12 10:47:14;;;;;;;3.40;1.50;;;;;;;24.12;32.52;100436.16;105016;1263;64145;-57
2023/07/12 10:49:57;;;;;;;7.30;1.70;;;;;;;24.11;33.10;100440.02;105234;1262;61366;-54
2023/07/12 10:52:27;;;;;;;5.10;1.70;;;;;;;24.14;32.53;100434.46;104886;1263;63712;-54
2023/07/12 10:55:04;;;;;;;3.80;1.70;;;;;;;24.21;32.72;100424.02;104975;1264;59745;-54
2023/07/12 10:57:46;;;;;;;4.20;1.50;;;;;;;24.32;32.58;100419.64;105034;1263;59830;-56
2023/07/12 11:00:16;;;;;;;3.20;1.50;;;;;;;24.43;31.98;100417.23;105178;1262;64083;-55
2023/07/12 11:02:50;;;;;;;4.10;1.60;;;;;;;24.49;31.86;100418.00;105034;1264;61453;-55
2023/07/12 11:05:47;;;;;;;3.20;1.30;;;;;;;24.48;31.31;100420.29;104835;1261;63741;-54
2023/07/12 11:08:34;;;;;;;4.20;1.50;;;;;;;24.54;32.28;100422.59;108763;1258;57711;-54
2023/07/12 11:11:27;;;;;;;3.90;1.70;;;;;;;24.68;33.61;100422.73;108743;1258;57706;-54
2023/07/12 11:14:00;;;;;;;4.70;1.60;;;;;;;24.86;32.83;100416.98;108893;1254;64125;-54
2023/07/12 11:16:28;;;;;;;8.50;1.80;;;;;;;25.03;32.29;100418.60;108870;1254;60142;-54
2023/07/12 11:18:58;;;;;;;6.10;1.60;;;;;;;25.19;32.18;100422.80;108870;1258;64119;-64
2023/07/12 11:21:27;;;;;;;3.40;1.40;;;;;;;25.37;31.80;100425.83;105384;1258;59763;-68
2023/07/12 11:23:55;;;;;;;3.20;1.40;;;;;;;25.53;31.25;100425.38;105952;1259;59712;-63
2023/07/12 11:26:27;;;;;;;3.80;1.60;;;;;;;25.70;31.08;100419.51;105877;1259;64120;-64
2023/07/12 11:29:17;;;;;;;4.20;1.40;;;;;;;25.89;31.03;100424.80;106012;1261;60184;-66
2023/07/12 11:31:48;;;;;;;3.70;1.40;;;;;;;26.03;30.11;100425.02;105840;1261;63779;-64
2023/07/12 11:34:17;;;;;;;4.10;1.30;;;;;;;26.03;29.15;100425.45;105824;1254;59712;-66
2023/07/12 11:36:52;;;;;;;3.20;1.40;;;;;;;25.92;28.79;100425.21;105848;1260;59791;-65
2023/07/12 11:39:22;;;;;;;4.20;1.90;;;;;;;25.78;29.13;100423.69;105217;1255;62887;-63
2023/07/12 11:42:04;;;;;;;3.80;1.50;;;;;;;25.68;30.86;100417.29;105912;1260;60085;-65
2023/07/12 11:44:31;;;;;;;4.10;1.50;;;;;;;25.60;30.82;100418.97;105845;1258;63761;-62
2023/07/12 11:46:58;;;;;;;3.10;1.10;;;;;;;25.57;31.00;100424.71;106008;1257;59774;-63